Latest Weather Observations for Cape Grim

IDT60801

Issued at 9:31 pm EST Thursday 22 June 2017 (issued every 30 minutes, with the page automatically refreshed every 10 minutes)

About weather observations | Map of weather stations | Latest weather observations for TAS | Other Formats
Station Details ID: 091331 Name: CAPE GRIM Lat: -40.68 Lon: 144.69 Height: 86.0 m
Data from the previous 72 hours. | See also: Recent months at Cape Grim
Date/Time
EST
Temp
°C
App
Temp
°C
Dew
Point
°C
Rel
Hum
%
Delta-T
°C
Wind Press
QNH
hPa
Press
MSL
hPa
Rain since
9am
mm
Dir  Spd
km/h
Gust
km/h
Spd
kts
Gust
kts
22/09:30pm 12.7 6.4 9.7 82 1.5 NW 33 46 18 25 1019.1 1019.1 0.0
22/09:00pm 12.6 5.7 8.7 77 1.9 NW 35 48 19 26 1019.2 1019.2 0.0
22/08:30pm 12.5 6.2 8.8 78 1.9 NW 32 44 17 24 1019.6 1019.7 0.0
22/08:00pm 12.3 7.3 8.2 76 2.0 NNW 24 32 13 17 1019.9 1020.0 0.0
22/07:30pm 11.6 7.5 7.9 78 1.8 NNW 19 26 10 14 1020.0 1020.1 0.0
22/07:00pm 11.6 7.5 7.9 78 1.8 NW 19 28 10 15 1020.4 1020.5 0.0
22/06:30pm 11.3 7.0 7.8 79 1.7 NW 20 24 11 13 1020.5 1020.6 0.0
22/06:00pm 10.5 6.7 7.4 81 1.5 NW 17 22 9 12 1020.6 1020.7 0.0
22/05:30pm 10.6 6.5 7.7 82 1.4 WNW 19 26 10 14 1021.0 1021.1 0.0
22/05:00pm 11.0 5.4 7.1 77 1.9 W 26 33 14 18 1021.3 1021.4 0.0
22/04:38pm 11.4 6.7 7.9 79 1.7 WNW 22 39 12 21 1021.4 1021.5 0.0
22/04:30pm 11.3 8.0 8.2 81 1.5 NW 15 24 8 13 1021.4 1021.5 0.0
22/04:00pm 11.3 5.2 8.3 82 1.5 NNW 30 35 16 19 1021.7 1021.8 0.0
22/03:30pm 11.4 5.6 7.9 79 1.7 NW 28 35 15 19 1021.9 1022.0 0.0
22/03:00pm 11.3 5.9 8.0 80 1.6 NW 26 35 14 19 1022.1 1022.2 0.0
22/02:30pm 11.1 6.5 8.0 81 1.5 NW 22 28 12 15 1022.4 1022.5 0.0
22/02:00pm 11.9 6.7 8.7 81 1.6 NNW 26 32 14 17 1022.8 1022.9 0.0
22/01:30pm 11.3 5.2 8.3 82 1.5 NNW 30 35 16 19 1023.2 1023.3 0.0
22/01:00pm 11.1 5.3 8.0 81 1.5 NNW 28 39 15 21 1023.8 1023.9 0.0
22/12:30pm 11.0 5.3 6.6 74 2.1 NNW 26 33 14 18 1024.2 1024.3 0.0
22/12:00pm 11.5 6.1 6.4 71 2.4 NNW 24 32 13 17 1024.7 1024.8 0.0
22/11:30am 11.7 6.4 6.8 72 2.3 NNW 24 32 13 17 1025.3 1025.4 0.0
22/11:00am 10.8 5.7 6.0 72 2.2 N 22 28 12 15 1025.7 1025.8 0.0
22/10:30am 10.4 6.8 6.7 78 1.7 NE 15 20 8 11 1026.0 1026.1 0.0
22/10:00am 8.2 4.0 5.7 84 1.1 ENE 17 20 9 11 1026.2 1026.3 0.0
22/09:30am 6.8 1.4 4.3 84 1.1 E 22 24 12 13 1026.1 1026.2 0.0
22/09:00am 6.3 1.3 3.5 82 1.2 E 19 24 10 13 1026.4 1026.5 0.0
22/08:30am 6.0 0.9 3.0 81 1.2 E 19 22 10 12 1026.5 1026.6 0.0
22/08:00am 4.1 -1.8 1.8 85 0.9 E 22 24 12 13 1026.6 1026.7 0.0
22/07:30am 3.7 -1.9 1.4 85 0.9 E 20 22 11 12 1026.6 1026.7 0.0
22/07:00am 3.8 -1.8 1.4 84 0.9 E 20 22 11 12 1026.5 1026.6 0.0
22/06:30am 4.1 -1.5 1.0 80 1.2 E 20 20 11 11 1026.5 1026.6 0.0
22/06:00am 5.5 0.2 1.6 76 1.5 E 19 20 10 11 1026.8 1026.9 0.0
22/05:30am 5.3 0.3 1.4 76 1.5 E 17 20 9 11 1026.9 1027.0 0.0
22/05:00am 5.1 0.4 0.9 74 1.6 E 15 17 8 9 1026.9 1027.0 0.0
22/04:30am 6.9 3.9 2.2 72 1.9 E 7 9 4 5 1027.2 1027.3 0.0
22/04:00am 6.7 3.0 2.4 74 1.8 E 11 13 6 7 1027.3 1027.4 0.0
22/03:30am 6.2 2.4 1.7 73 1.8 E 11 13 6 7 1027.4 1027.5 0.0
22/03:00am 6.0 1.4 1.5 73 1.8 E 15 15 8 8 1027.5 1027.6 0.0
22/02:30am 5.6 0.9 1.0 72 1.8 E 15 17 8 9 1027.7 1027.8 0.0
22/02:00am 6.7 1.8 2.0 72 1.9 E 17 19 9 10 1027.8 1027.9 0.0
22/01:30am 7.5 3.7 1.8 67 2.3 ESE 11 17 6 9 1027.9 1028.0 0.0
22/01:00am 8.1 5.5 1.0 61 2.9 S 4 9 2 5 1028.3 1028.4 0.0
22/12:30am 7.0 3.5 1.3 67 2.3 ESE 9 11 5 6 1028.4 1028.5 0.0
22/12:00am 6.8 2.9 1.3 68 2.2 E 11 11 6 6 1028.6 1028.7 0.0
 
Date/Time
EST
Temp
°C
App
Temp
°C
Dew
Point
°C
Rel
Hum
%
Delta-T
°C
Wind Press
QNH
hPa
Press
MSL
hPa
Rain since
9am
mm
Dir  Spd
km/h
Gust
km/h
Spd
kts
Gust
kts
21/11:30pm 7.2 3.4 1.5 67 2.3 E 11 13 6 7 1028.8 1028.9 0.0
21/11:00pm 7.6 3.9 2.1 68 2.3 E 11 13 6 7 1029.1 1029.3 0.0
21/10:30pm 7.8 4.9 2.5 69 2.2 ENE 7 9 4 5 1029.3 1029.5 0.0
21/10:00pm 7.9 5.5 2.2 67 2.4 E 4 7 2 4 1029.4 1029.6 0.0
21/09:30pm 7.7 4.0 2.6 70 2.1 E 11 13 6 7 1029.3 1029.5 0.0
21/09:00pm 7.5 3.9 2.8 72 2.0 ESE 11 13 6 7 1029.3 1029.5 0.0
21/08:30pm 7.6 3.2 2.9 72 2.0 ESE 15 15 8 8 1029.1 1029.3 0.0
21/08:00pm 7.7 3.7 2.8 71 2.0 ESE 13 13 7 7 1029.1 1029.3 0.0
21/07:30pm 7.7 3.7 2.6 70 2.1 ESE 13 15 7 8 1028.8 1028.9 0.0
21/07:00pm 7.9 4.2 2.2 67 2.4 SE 11 13 6 7 1028.8 1028.9 0.0
21/06:30pm 9.1 4.8 1.0 57 3.3 S 13 24 7 13 1028.5 1028.6 0.0
21/06:00pm 8.5 5.6 2.5 66 2.5 SE 7 9 4 5 1028.4 1028.5 0.0
21/05:30pm 8.6 4.9 2.2 64 2.7 SE 11 11 6 6 1028.3 1028.4 0.0
21/05:00pm 9.6 4.0 1.5 57 3.3 SW 20 30 11 16 1028.1 1028.2 0.0
21/04:30pm 9.7 5.3 2.8 62 3.0 SW 15 20 8 11 1028.0 1028.1 0.0
21/04:00pm 9.7 5.2 2.1 59 3.2 SSW 15 20 8 11 1028.1 1028.2 0.0
21/03:30pm 9.7 4.7 3.4 65 2.7 SSW 19 30 10 16 1027.8 1027.9 0.0
21/03:00pm 10.0 4.6 2.6 60 3.1 SW 20 32 11 17 1027.6 1027.7 0.0
21/02:30pm 9.8 4.2 3.3 64 2.8 SW 22 35 12 19 1027.5 1027.6 0.0
21/02:00pm 10.1 3.4 3.4 63 2.9 SW 28 37 15 20 1027.4 1027.5 0.0
21/01:30pm 10.3 3.8 2.7 59 3.3 SW 26 37 14 20 1027.2 1027.3 0.0
21/01:00pm 10.5 3.2 2.6 58 3.4 SW 30 39 16 21 1027.2 1027.3 0.0
21/12:30pm 10.4 4.3 2.7 59 3.3 SW 24 33 13 18 1027.3 1027.4 0.0
21/12:00pm 10.2 4.3 3.7 64 2.8 SSW 24 33 13 18 1027.4 1027.5 0.0
21/11:30am 11.0 5.3 5.1 67 2.7 SW 24 33 13 18 1027.6 1027.7 0.0
21/11:00am 10.4 3.2 3.0 60 3.2 SW 30 39 16 21 1027.8 1027.9 0.0
21/10:30am 10.1 3.0 3.8 65 2.8 SW 30 41 16 22 1027.6 1027.7 0.0
21/10:00am 10.3 2.7 4.0 65 2.8 SW 33 43 18 23 1027.4 1027.5 0.0
21/09:30am 10.2 1.6 2.8 60 3.2 SW 37 44 20 24 1027.0 1027.1 0.0
21/09:00am 10.1 2.6 4.7 69 2.4 SW 33 46 18 25 1026.6 1026.7 5.4
21/08:30am 9.7 1.0 6.2 79 1.6 SW 41 63 22 34 1026.3 1026.4 5.4
21/08:17am 10.3 2.2 5.3 71 2.3 SW 37 57 20 31 1026.0 1026.1 5.4
21/08:00am 9.4 2.6 5.2 75 1.9 SW 30 43 16 23 1025.9 1026.0 5.4
21/07:30am 9.6 0.5 4.0 68 2.5 SW 41 56 22 30 1025.4 1025.5 5.4
21/07:00am 10.1 1.0 3.8 65 2.8 SW 41 52 22 28 1024.9 1025.0 5.4
21/06:35am 10.1 1.9 4.5 68 2.5 SW 37 56 20 30 1024.6 1024.7 5.2
21/06:30am 9.8 0.4 4.6 70 2.3 SW 43 56 23 30 1024.6 1024.7 5.2
21/06:08am 10.2 1.8 3.7 64 2.9 SW 37 56 20 30 1024.2 1024.3 5.2
21/06:00am 10.1 1.4 4.3 67 2.6 SW 39 54 21 29 1024.1 1024.2 5.2
21/05:30am 10.2 3.7 4.6 68 2.5 SW 28 48 15 26 1023.7 1023.8 5.2
21/05:14am 9.8 1.7 5.2 73 2.1 SW 37 56 20 30 1023.4 1023.5 5.2
21/05:00am 9.2 0.0 5.6 78 1.6 SW 43 57 23 31 1023.5 1023.6 5.2
21/04:30am 10.7 3.6 3.5 61 3.2 WSW 30 52 16 28 1023.1 1023.2 5.2
21/04:06am 10.8 4.3 4.7 66 2.8 WSW 28 46 15 25 1022.8 1022.9 5.2
21/04:00am 10.6 4.1 4.7 67 2.7 WSW 28 46 15 25 1022.8 1022.9 5.2
21/03:39am 10.8 4.1 3.4 60 3.3 SW 28 50 15 27 1022.7 1022.8 5.2
21/03:30am 10.7 4.7 3.3 60 3.2 SW 24 43 13 23 1022.7 1022.8 5.2
21/03:00am 10.9 2.2 1.7 53 3.9 SW 37 63 20 34 1022.4 1022.5 5.2
21/02:41am 10.9 1.6 2.7 57 3.6 SW 41 59 22 32 1022.3 1022.4 5.2
21/02:30am 11.0 1.7 4.9 66 2.8 SW 43 57 23 31 1022.1 1022.2 5.2
21/02:00am 10.6 -0.1 4.7 67 2.7 SW 50 72 27 39 1021.7 1021.8 5.2
21/01:30am 11.2 1.9 4.9 65 2.9 SW 43 63 23 34 1021.3 1021.4 5.2
21/01:00am 10.5 0.7 5.3 70 2.4 SW 46 67 25 36 1021.2 1021.3 5.2
21/12:31am 11.4 1.0 4.4 62 3.2 SW 48 69 26 37 1021.1 1021.2 5.2
21/12:30am 11.5 1.2 4.7 63 3.1 SW 48 65 26 35 1021.1 1021.2 5.2
21/12:00am 11.5 1.8 5.6 67 2.7 SW 46 69 25 37 1021.0 1021.1 5.2
 
Date/Time
EST
Temp
°C
App
Temp
°C
Dew
Point
°C
Rel
Hum
%
Delta-T
°C
Wind Press
QNH
hPa
Press
MSL
hPa
Rain since
9am
mm
Dir  Spd
km/h
Gust
km/h
Spd
kts
Gust
kts
20/11:47pm 11.0 -0.2 7.5 79 1.7 SW 56 74 30 40 1021.2 1021.3 5.2
20/11:33pm 11.7 3.7 7.6 76 2.0 WSW 39 78 21 42 1021.1 1021.2 5.2
20/11:32pm 11.8 4.1 7.1 73 2.3 WSW 37 78 20 42 1021.0 1021.1 5.2
20/11:30pm 12.2 4.7 6.5 68 2.7 WSW 35 57 19 31 1021.0 1021.1 5.2
20/11:00pm 12.2 3.6 6.5 68 2.7 SW 41 70 22 38 1020.6 1020.7 5.2
20/10:30pm 12.3 4.2 7.0 70 2.6 SW 39 69 21 37 1020.2 1020.3 5.2
20/10:00pm 12.3 3.3 7.2 71 2.5 SW 44 69 24 37 1019.9 1020.0 5.2
20/09:43pm 12.4 3.3 6.7 68 2.7 WSW 44 74 24 40 1019.7 1019.8 5.2
20/09:42pm 12.5 3.6 7.0 69 2.7 WSW 43 72 23 39 1019.7 1019.8 5.2
20/09:30pm 12.9 5.5 6.9 67 2.9 WSW 35 65 19 35 1019.4 1019.5 5.2
20/09:02pm 11.4 3.8 9.0 85 1.2 WSW 39 65 21 35 1019.1 1019.1 5.2
20/09:00pm 11.4 4.2 9.3 87 1.1 WSW 37 65 20 35 1019.1 1019.1 5.2
20/08:30pm 11.7 5.4 11.1 96 0.3 WSW 35 61 19 33 1018.9 1018.9 4.8
20/08:26pm 11.6 3.7 10.8 95 0.4 W 43 106 23 57 1018.9 1018.9 4.4
20/08:23pm 11.7 2.5 10.8 94 0.5 W 50 106 27 57 1018.9 1018.9 3.8
20/08:19pm 12.0 1.4 9.9 87 1.1 WNW 56 106 30 57 1018.6 1018.6 2.0
20/08:18pm 12.4 1.6 9.8 84 1.3 WNW 57 106 31 57 1017.9 1017.9 1.2
20/08:16pm 14.0 4.3 11.7 86 1.2 WNW 54 72 29 39 1018.0 1018.0 0.0
20/08:00pm 14.0 4.2 11.5 85 1.3 WNW 54 69 29 37 1018.2 1018.2 0.0
20/07:30pm 14.4 5.3 11.4 82 1.6 WNW 50 69 27 37 1018.5 1018.5 0.0
20/07:03pm 14.4 4.5 11.2 81 1.7 WNW 54 72 29 39 1018.4 1018.4 0.0
20/07:00pm 14.4 4.1 11.2 81 1.7 WNW 56 72 30 39 1018.4 1018.4 0.0
20/06:30pm 14.1 5.0 11.3 83 1.5 WNW 50 69 27 37 1018.5 1018.5 0.0
20/06:25pm 14.0 4.9 11.2 83 1.5 WNW 50 69 27 37 1018.5 1018.5 0.0
20/06:00pm 13.8 6.4 12.4 91 0.8 NW 43 54 23 29 1018.6 1018.6 0.0
20/05:44pm 13.8 6.8 12.4 91 0.8 NW 41 59 22 32 1018.6 1018.6 0.0
20/05:30pm 13.8 6.2 12.5 92 0.7 NW 44 59 24 32 1018.6 1018.6 0.0
20/05:19pm 13.6 6.2 12.3 92 0.7 NW 43 61 23 33 1018.5 1018.5 0.0
20/05:00pm 13.7 5.9 11.8 88 1.0 NW 44 57 24 31 1018.7 1018.7 0.0
20/04:30pm 13.6 5.4 11.7 88 1.0 NW 46 57 25 31 1018.8 1018.8 0.0
20/04:00pm 13.6 5.3 11.5 87 1.1 NW 46 56 25 30 1019.1 1019.1 0.0
20/03:30pm 13.5 5.7 11.0 85 1.3 NW 43 56 23 30 1019.4 1019.5 0.0
20/03:00pm 13.4 5.3 10.9 85 1.3 NW 44 59 24 32 1019.4 1019.5 0.0
20/02:30pm 13.4 4.9 10.8 84 1.4 NW 46 61 25 33 1019.6 1019.7 0.0
20/02:00pm 13.3 5.1 10.3 82 1.6 NW 44 61 24 33 1019.8 1019.9 0.0
20/01:30pm 13.3 5.2 9.9 80 1.8 NW 43 59 23 32 1019.9 1020.0 0.0
20/01:05pm 13.3 6.8 10.3 82 1.6 NW 35 54 19 29 1020.4 1020.5 0.0
20/01:00pm 13.5 7.0 10.5 82 1.6 NW 35 48 19 26 1020.5 1020.6 0.0
20/12:30pm 13.6 5.5 10.2 80 1.8 NNW 43 52 23 28 1020.8 1020.9 0.0
20/12:00pm 13.6 5.0 10.2 80 1.8 NNW 46 57 25 31 1021.3 1021.4 0.0
20/11:30am 13.5 5.3 10.5 82 1.6 NNW 44 56 24 30 1021.9 1022.0 0.0
20/11:00am 13.6 5.6 10.4 81 1.7 NNW 43 54 23 29 1022.2 1022.3 0.0
20/10:30am 13.5 6.2 10.1 80 1.8 NNW 39 48 21 26 1022.4 1022.5 0.0
20/10:00am 13.3 5.9 9.7 79 1.8 NW 39 52 21 28 1023.0 1023.1 0.0
20/09:30am 13.4 5.3 10.2 81 1.7 NNW 43 56 23 30 1023.1 1023.2 0.0
20/09:00am 13.3 5.8 11.0 86 1.2 NW 41 56 22 30 1023.1 1023.2 0.8
20/08:30am 13.3 5.6 11.5 89 1.0 NNW 43 52 23 28 1023.0 1023.1 0.8
20/08:00am 13.2 6.8 12.1 93 0.6 NNW 37 43 20 23 1023.2 1023.3 0.8
20/07:30am 13.2 7.5 11.9 92 0.7 NNW 33 43 18 23 1023.1 1023.2 0.8
20/07:00am 13.1 7.6 11.7 91 0.7 NNW 32 43 17 23 1023.0 1023.1 0.8
20/06:30am 13.0 6.5 10.5 85 1.3 NNW 35 43 19 23 1023.4 1023.5 0.8
20/06:00am 13.2 7.5 11.8 91 0.7 NNW 33 44 18 24 1023.4 1023.5 0.8
20/05:30am 13.2 8.1 11.9 92 0.7 NNW 30 37 16 20 1023.3 1023.4 0.8
20/05:00am 13.3 8.3 11.0 86 1.2 NNW 28 32 15 17 1023.4 1023.5 0.8
20/04:30am 13.6 8.6 9.5 76 2.1 NW 26 35 14 19 1023.5 1023.6 0.8
20/04:00am 13.0 8.2 10.4 84 1.3 NW 26 39 14 21 1023.9 1024.0 0.8
20/03:30am 13.5 9.5 11.9 90 0.9 NW 24 30 13 16 1024.3 1024.4 0.8
20/03:00am 13.5 8.6 11.4 87 1.1 NW 28 35 15 19 1024.8 1024.9 0.8
20/02:30am 13.4 8.5 11.3 87 1.1 NW 28 35 15 19 1025.0 1025.1 0.8
20/02:00am 13.4 8.1 11.1 86 1.2 WNW 30 39 16 21 1025.2 1025.3 0.8
20/01:30am 13.4 7.6 10.8 84 1.4 WNW 32 43 17 23 1025.3 1025.4 0.8
20/01:00am 13.1 7.3 10.8 86 1.2 WNW 32 39 17 21 1025.4 1025.5 0.8
20/12:30am 12.8 8.3 11.5 92 0.7 NW 26 37 14 20 1025.5 1025.6 0.8
20/12:00am 13.0 7.9 10.5 85 1.3 NW 28 39 15 21 1025.9 1026.0 0.8
 
Date/Time
EST
Temp
°C
App
Temp
°C
Dew
Point
°C
Rel
Hum
%
Delta-T
°C
Wind Press
QNH
hPa
Press
MSL
hPa
Rain since
9am
mm
Dir  Spd
km/h
Gust
km/h
Spd
kts
Gust
kts
19/11:30pm 13.2 9.3 10.7 85 1.3 WNW 22 33 12 18 1026.1 1026.2 0.8
19/11:00pm 13.0 7.8 10.4 84 1.3 WNW 28 35 15 19 1026.3 1026.4 0.8
19/10:30pm 13.0 8.6 11.7 92 0.7 WNW 26 33 14 18 1026.4 1026.5 0.8
19/10:00pm 12.3 8.2 11.4 94 0.5 WNW 24 28 13 15 1026.5 1026.6 0.8

Other Formats:

Comma delimited format used in spreadsheet applications
http://www.bom.gov.au/fwo/IDT60801/IDT60801.95954.axf

JavaScript Object Notation format (JSON) in row-major order
http://www.bom.gov.au/fwo/IDT60801/IDT60801.95954.json